Time;durP1;ratioP1;P1;durP2;ratioP2;P2;SDS_P1;SDS_P2;PMS_P1;PMS_P2;Temp;Humidity;BMP_temperature;BMP_pressure;BME280_temperature;BME280_humidity;BME280_pressure;Samples;Min_cycle;Max_cycle;Signal;HPM_P1;HPM_P2
2023/03/03 00:01:38;;;;;;;1.20;1.10;;;;;;;;;;5036986;28;20312;-71
2023/03/03 00:04:06;;;;;;;1.80;1.70;;;;;;;;;;5136675;27;20247;-72
2023/03/03 00:06:36;;;;;;;1.73;1.63;;;;;;;;;;5044195;27;20237;-72
2023/03/03 00:09:12;;;;;;;1.00;0.90;;;;;;;;;;5039225;28;20232;-73
2023/03/03 00:11:40;;;;;;;1.13;1.02;;;;;;;;;;5038805;28;20609;-72
2023/03/03 00:14:18;;;;;;;1.98;1.88;;;;;;;;;;5039452;28;20261;-71
2023/03/03 00:16:49;;;;;;;1.15;1.05;;;;;;;;;;5037795;28;20935;-71
2023/03/03 00:19:28;;;;;;;1.10;1.00;;;;;;;;;;5029198;28;20222;-72
2023/03/03 00:24:46;;;;;;;1.25;1.15;;;;;;;;;;5040343;28;20260;-70
2023/03/03 00:27:24;;;;;;;1.13;1.02;;;;;;;;;;5038542;28;20295;-72
2023/03/03 00:29:54;;;;;;;1.20;1.10;;;;;;;;;;5040536;28;20226;-71
2023/03/03 00:32:26;;;;;;;1.40;1.30;;;;;;;;;;5040533;28;20633;-72
2023/03/03 00:35:04;;;;;;;1.00;0.90;;;;;;;;;;5040513;28;20313;-72
2023/03/03 00:37:36;;;;;;;1.10;1.00;;;;;;;;;;5039614;28;20222;-72
2023/03/03 00:40:32;;;;;;;1.10;1.00;;;;;;;;;;5040802;28;20307;-72
2023/03/03 00:43:24;;;;;;;1.48;1.38;;;;;;;;;;5040102;28;20319;-71
2023/03/03 00:46:17;;;;;;;1.50;1.40;;;;;;;;;;5039461;28;20225;-73
2023/03/03 00:48:56;;;;;;;1.58;1.48;;;;;;;;;;5038844;28;20231;-72
2023/03/03 00:51:28;;;;;;;1.00;0.90;;;;;;;;;;5039060;28;20493;-71
2023/03/03 00:54:05;;;;;;;1.50;1.40;;;;;;;;;;5040373;28;20285;-72
2023/03/03 00:56:39;;;;;;;1.38;1.27;;;;;;;;;;5039056;28;20823;-72
2023/03/03 00:59:09;;;;;;;1.45;1.35;;;;;;;;;;5039892;28;20223;-72
2023/03/03 01:01:44;;;;;;;1.58;1.48;;;;;;;;;;5039669;28;20213;-71
2023/03/03 01:04:34;;;;;;;1.40;1.30;;;;;;;;;;5040141;28;20239;-72
2023/03/03 01:07:05;;;;;;;1.38;1.27;;;;;;;;;;5083097;27;20279;-71
2023/03/03 01:09:36;;;;;;;1.38;1.27;;;;;;;;;;5143220;27;20500;-72
2023/03/03 01:12:05;;;;;;;1.27;1.17;;;;;;;;;;5143111;27;20228;-72
2023/03/03 01:14:35;;;;;;;1.55;1.45;;;;;;;;;;5143720;27;20219;-71
2023/03/03 01:17:05;;;;;;;1.10;1.00;;;;;;;;;;5142157;27;20501;-71
2023/03/03 01:19:34;;;;;;;1.40;1.30;;;;;;;;;;5095290;27;20327;-72
2023/03/03 01:22:01;;;;;;;1.90;1.80;;;;;;;;;;5037892;28;20248;-71
2023/03/03 01:24:29;;;;;;;1.10;1.00;;;;;;;;;;5038445;28;20338;-72
2023/03/03 01:26:57;;;;;;;1.00;0.90;;;;;;;;;;5037121;28;20267;-72
2023/03/03 01:29:24;;;;;;;1.30;1.20;;;;;;;;;;5039714;28;20223;-72
2023/03/03 01:31:52;;;;;;;1.25;1.15;;;;;;;;;;5037444;28;20295;-71
2023/03/03 01:34:22;;;;;;;1.73;1.63;;;;;;;;;;5039896;28;20375;-72
2023/03/03 01:36:51;;;;;;;1.95;1.85;;;;;;;;;;5037865;28;20228;-72
2023/03/03 01:39:18;;;;;;;1.20;1.10;;;;;;;;;;5038541;28;20221;-72
2023/03/03 01:41:46;;;;;;;1.40;1.30;;;;;;;;;;5037998;28;20239;-72
2023/03/03 01:44:15;;;;;;;1.00;0.90;;;;;;;;;;5036901;28;20227;-72
2023/03/03 01:46:49;;;;;;;1.20;1.10;;;;;;;;;;5037514;28;20228;-72
2023/03/03 01:49:19;;;;;;;1.17;1.08;;;;;;;;;;5037868;28;20248;-72
2023/03/03 01:51:50;;;;;;;1.27;1.17;;;;;;;;;;5038271;28;20233;-72
2023/03/03 01:54:20;;;;;;;1.00;0.90;;;;;;;;;;5037229;28;20232;-72
2023/03/03 01:56:49;;;;;;;1.23;1.13;;;;;;;;;;5037200;28;20223;-72
2023/03/03 01:59:19;;;;;;;1.23;1.13;;;;;;;;;;5038063;28;20255;-74
2023/03/03 02:01:53;;;;;;;1.00;0.90;;;;;;;;;;5037752;28;20509;-72
2023/03/03 02:04:22;;;;;;;1.63;1.52;;;;;;;;;;5037880;28;20220;-71
2023/03/03 02:06:54;;;;;;;1.23;1.13;;;;;;;;;;5037900;28;20300;-72
2023/03/03 02:09:28;;;;;;;1.00;0.90;;;;;;;;;;5038023;28;20236;-72
2023/03/03 02:11:59;;;;;;;1.25;1.15;;;;;;;;;;5037259;28;20229;-72
2023/03/03 02:14:27;;;;;;;1.38;1.27;;;;;;;;;;5037586;28;20233;-72
2023/03/03 02:16:55;;;;;;;1.60;1.50;;;;;;;;;;5039327;28;20344;-72
2023/03/03 02:19:29;;;;;;;1.60;1.50;;;;;;;;;;5037846;28;20305;-71
2023/03/03 02:22:02;;;;;;;1.00;0.82;;;;;;;;;;5039426;28;20321;-72
2023/03/03 02:24:34;;;;;;;1.45;1.35;;;;;;;;;;5037660;28;20611;-71
2023/03/03 02:27:03;;;;;;;1.27;1.17;;;;;;;;;;5036659;28;20675;-73
2023/03/03 02:29:34;;;;;;;1.10;1.00;;;;;;;;;;5036474;28;20230;-71
2023/03/03 02:32:02;;;;;;;1.85;1.75;;;;;;;;;;5037049;28;20228;-72
2023/03/03 02:34:30;;;;;;;2.20;2.10;;;;;;;;;;5036291;28;20232;-72
2023/03/03 02:36:58;;;;;;;2.20;2.10;;;;;;;;;;5038174;28;20235;-71
2023/03/03 02:39:30;;;;;;;1.25;1.15;;;;;;;;;;5039241;28;20605;-71
2023/03/03 02:42:01;;;;;;;2.67;2.47;;;;;;;;;;5037098;28;20226;-72
2023/03/03 02:44:31;;;;;;;1.05;0.85;;;;;;;;;;5040234;28;20227;-72
2023/03/03 02:47:00;;;;;;;2.38;2.17;;;;;;;;;;5037025;28;20225;-71
2023/03/03 02:49:29;;;;;;;1.20;1.10;;;;;;;;;;5040696;28;20238;-72
2023/03/03 02:51:57;;;;;;;1.75;1.65;;;;;;;;;;5036905;28;20302;-71
2023/03/03 02:54:29;;;;;;;1.38;1.25;;;;;;;;;;5039689;28;20230;-72
2023/03/03 02:56:56;;;;;;;2.08;1.98;;;;;;;;;;5039022;28;20565;-72
2023/03/03 02:59:24;;;;;;;2.00;1.90;;;;;;;;;;5037714;28;20241;-71
2023/03/03 03:01:53;;;;;;;1.10;1.00;;;;;;;;;;5040226;28;20243;-72
2023/03/03 03:04:22;;;;;;;1.10;1.00;;;;;;;;;;5036052;28;20288;-71
2023/03/03 03:06:50;;;;;;;1.80;1.70;;;;;;;;;;5038280;28;20337;-72
2023/03/03 03:09:18;;;;;;;0.90;0.80;;;;;;;;;;5036981;28;20240;-72
2023/03/03 03:11:47;;;;;;;0.90;0.70;;;;;;;;;;5036767;28;20229;-72
2023/03/03 03:14:14;;;;;;;1.17;1.08;;;;;;;;;;5037265;28;20227;-71
2023/03/03 03:16:42;;;;;;;1.48;1.23;;;;;;;;;;5035451;28;20231;-72
2023/03/03 03:19:11;;;;;;;1.20;1.10;;;;;;;;;;5036859;28;20225;-71
2023/03/03 03:21:49;;;;;;;;;;;;;;;;;;;;;
2023/03/03 03:24:18;;;;;;;2.45;2.35;;;;;;;;;;5036068;28;20558;-71
2023/03/03 03:26:45;;;;;;;1.10;1.00;;;;;;;;;;5036554;28;20232;-71
2023/03/03 03:29:13;;;;;;;1.83;1.70;;;;;;;;;;5036360;28;20248;-73
2023/03/03 03:31:42;;;;;;;1.65;1.55;;;;;;;;;;5037453;28;20623;-72
2023/03/03 03:34:12;;;;;;;1.20;1.10;;;;;;;;;;5036845;28;20308;-72
2023/03/03 03:36:45;;;;;;;1.50;1.40;;;;;;;;;;5036654;28;20671;-73
2023/03/03 03:39:13;;;;;;;1.70;1.60;;;;;;;;;;5035802;28;20596;-72
2023/03/03 03:41:41;;;;;;;1.48;1.38;;;;;;;;;;5037488;28;20235;-72
2023/03/03 03:44:09;;;;;;;1.00;0.80;;;;;;;;;;5035508;28;20257;-72
2023/03/03 03:46:37;;;;;;;1.23;1.10;;;;;;;;;;5036938;28;20232;-73
2023/03/03 03:49:04;;;;;;;1.08;0.98;;;;;;;;;;5036396;28;20234;-72
2023/03/03 03:51:37;;;;;;;1.45;1.35;;;;;;;;;;5037856;28;20232;-71
2023/03/03 03:54:06;;;;;;;1.08;0.98;;;;;;;;;;5035069;28;20228;-71
2023/03/03 03:56:37;;;;;;;1.20;1.10;;;;;;;;;;5035827;28;20643;-73
2023/03/03 03:59:06;;;;;;;4.20;3.97;;;;;;;;;;5034059;28;20241;-71
2023/03/03 04:01:34;;;;;;;1.60;1.50;;;;;;;;;;5035264;28;20244;-72
2023/03/03 04:04:03;;;;;;;1.30;1.20;;;;;;;;;;5034231;28;20246;-72
2023/03/03 04:06:36;;;;;;;1.55;1.45;;;;;;;;;;5033866;28;20242;-72
2023/03/03 04:09:04;;;;;;;1.00;0.80;;;;;;;;;;5036680;28;20596;-71
2023/03/03 04:11:32;;;;;;;1.77;1.67;;;;;;;;;;5035500;28;20227;-72
2023/03/03 04:14:01;;;;;;;1.50;1.40;;;;;;;;;;5036655;28;20228;-72
2023/03/03 04:16:30;;;;;;;1.00;0.90;;;;;;;;;;5035300;28;20231;-72
2023/03/03 04:19:04;;;;;;;1.00;0.80;;;;;;;;;;5036422;28;20693;-70
2023/03/03 04:21:32;;;;;;;1.45;1.35;;;;;;;;;;5036175;28;20254;-71
2023/03/03 04:24:01;;;;;;;1.20;1.10;;;;;;;;;;5037737;28;20307;-72
2023/03/03 04:26:29;;;;;;;1.38;1.27;;;;;;;;;;5038894;28;20230;-71
2023/03/03 04:28:58;;;;;;;1.63;1.52;;;;;;;;;;5038524;28;20571;-72
2023/03/03 04:31:26;;;;;;;1.65;1.55;;;;;;;;;;5038598;28;20490;-72
2023/03/03 04:33:54;;;;;;;1.75;1.65;;;;;;;;;;5039028;28;20224;-72
2023/03/03 04:36:22;;;;;;;1.13;1.02;;;;;;;;;;5038560;28;20228;-70
2023/03/03 04:38:50;;;;;;;1.00;0.88;;;;;;;;;;5039252;28;20238;-75
2023/03/03 04:41:19;;;;;;;1.00;0.90;;;;;;;;;;5037883;28;20232;-72
2023/03/03 04:43:47;;;;;;;0.90;0.70;;;;;;;;;;5037779;28;20240;-73
2023/03/03 04:46:14;;;;;;;1.00;0.90;;;;;;;;;;5038250;28;20234;-71
2023/03/03 04:48:42;;;;;;;1.50;1.40;;;;;;;;;;5038315;28;20293;-72
2023/03/03 04:51:10;;;;;;;3.55;3.35;;;;;;;;;;5037648;28;20231;-72
2023/03/03 04:53:38;;;;;;;2.00;1.90;;;;;;;;;;5037246;28;20222;-71
2023/03/03 04:56:06;;;;;;;2.25;2.10;;;;;;;;;;5037933;28;20220;-72
2023/03/03 04:58:35;;;;;;;1.67;1.58;;;;;;;;;;5037773;28;20629;-72
2023/03/03 05:01:04;;;;;;;1.75;1.65;;;;;;;;;;5037959;28;20221;-72
2023/03/03 05:03:31;;;;;;;1.60;1.50;;;;;;;;;;5037501;28;20312;-72
2023/03/03 05:06:01;;;;;;;1.45;1.35;;;;;;;;;;5037572;28;20226;-71
2023/03/03 05:08:29;;;;;;;2.03;1.92;;;;;;;;;;5038044;28;20234;-71
2023/03/03 05:10:58;;;;;;;1.15;1.05;;;;;;;;;;5037883;28;20314;-72
2023/03/03 05:13:27;;;;;;;1.45;1.35;;;;;;;;;;5039005;28;20251;-71
2023/03/03 05:15:59;;;;;;;1.63;1.40;;;;;;;;;;5037706;28;20290;-71
2023/03/03 05:18:34;;;;;;;1.25;1.15;;;;;;;;;;5037170;28;20551;-73
2023/03/03 05:21:02;;;;;;;1.42;1.33;;;;;;;;;;5037457;28;20230;-71
2023/03/03 05:23:30;;;;;;;1.25;1.15;;;;;;;;;;5039135;28;20242;-73
2023/03/03 05:25:58;;;;;;;1.55;1.45;;;;;;;;;;5036762;28;20238;-72
2023/03/03 05:28:25;;;;;;;1.83;1.73;;;;;;;;;;5038185;28;20284;-71
2023/03/03 05:30:53;;;;;;;1.05;0.95;;;;;;;;;;5036472;28;20227;-71
2023/03/03 05:33:22;;;;;;;1.45;1.35;;;;;;;;;;5036933;28;20230;-72
2023/03/03 05:35:55;;;;;;;1.10;1.00;;;;;;;;;;5054605;28;20242;-72
2023/03/03 05:38:22;;;;;;;1.75;1.65;;;;;;;;;;5047527;28;20209;-72
2023/03/03 05:40:54;;;;;;;1.10;1.00;;;;;;;;;;5039720;28;20244;-72
2023/03/03 05:43:31;;;;;;;1.10;0.98;;;;;;;;;;5039516;28;20243;-72
2023/03/03 05:46:00;;;;;;;2.08;1.98;;;;;;;;;;5045434;28;20266;-71
2023/03/03 05:48:29;;;;;;;2.42;2.33;;;;;;;;;;5046968;28;20222;-72
2023/03/03 05:50:59;;;;;;;1.55;1.45;;;;;;;;;;5035411;28;20721;-72
2023/03/03 05:53:27;;;;;;;1.67;1.58;;;;;;;;;;5114302;27;20283;-73
2023/03/03 05:56:02;;;;;;;1.33;1.23;;;;;;;;;;5087958;27;20618;-71
2023/03/03 05:58:34;;;;;;;1.10;1.00;;;;;;;;;;5015876;28;20274;-72
2023/03/03 06:01:04;;;;;;;1.27;1.17;;;;;;;;;;5028567;28;20308;-71
2023/03/03 06:03:40;;;;;;;1.55;1.45;;;;;;;;;;5042820;28;20245;-72
2023/03/03 06:06:11;;;;;;;1.88;1.77;;;;;;;;;;5044550;28;20243;-72
2023/03/03 06:08:47;;;;;;;1.00;0.90;;;;;;;;;;5046824;28;20230;-72
2023/03/03 06:11:18;;;;;;;2.17;2.00;;;;;;;;;;5055750;28;20231;-73
2023/03/03 06:13:48;;;;;;;1.08;0.98;;;;;;;;;;5044773;28;20273;-73
2023/03/03 06:16:16;;;;;;;1.65;1.55;;;;;;;;;;5036356;28;20272;-72
2023/03/03 06:18:56;;;;;;;1.60;1.50;;;;;;;;;;5034847;28;20617;-73
2023/03/03 06:21:25;;;;;;;1.45;1.35;;;;;;;;;;5032561;28;20264;-72
2023/03/03 06:23:56;;;;;;;1.55;1.45;;;;;;;;;;5034241;28;20652;-72
2023/03/03 06:26:25;;;;;;;1.42;1.33;;;;;;;;;;5034720;28;20544;-72
2023/03/03 06:28:54;;;;;;;1.80;1.70;;;;;;;;;;5039771;28;20247;-71
2023/03/03 06:31:22;;;;;;;2.55;2.45;;;;;;;;;;5034750;28;20294;-71
2023/03/03 06:33:51;;;;;;;2.20;2.10;;;;;;;;;;5052982;28;20233;-72
2023/03/03 06:36:25;;;;;;;1.88;1.77;;;;;;;;;;5054919;28;20218;-72
2023/03/03 06:38:55;;;;;;;2.47;2.38;;;;;;;;;;5054352;28;20224;-73
2023/03/03 06:41:25;;;;;;;3.70;3.50;;;;;;;;;;5038167;28;20648;-72
2023/03/03 06:44:01;;;;;;;1.60;1.50;;;;;;;;;;5033837;28;20239;-71
2023/03/03 06:46:36;;;;;;;1.50;1.40;;;;;;;;;;5035400;28;20239;-72
2023/03/03 06:49:05;;;;;;;1.48;1.38;;;;;;;;;;5036807;28;20232;-72
2023/03/03 06:51:38;;;;;;;2.08;1.88;;;;;;;;;;5035994;28;20653;-71
2023/03/03 06:54:14;;;;;;;1.58;1.48;;;;;;;;;;5033463;28;20225;-72
2023/03/03 06:56:44;;;;;;;1.88;1.77;;;;;;;;;;5035937;28;20258;-72
2023/03/03 06:59:13;;;;;;;1.20;1.10;;;;;;;;;;5033677;28;20261;-70
2023/03/03 07:01:46;;;;;;;1.20;1.10;;;;;;;;;;5034287;28;20237;-72
2023/03/03 07:04:29;;;;;;;1.20;1.10;;;;;;;;;;5019024;28;20247;-72
2023/03/03 07:06:58;;;;;;;2.42;2.33;;;;;;;;;;5022723;28;20556;-72
2023/03/03 07:09:27;;;;;;;1.85;1.75;;;;;;;;;;5034880;28;20242;-72
2023/03/03 07:12:01;;;;;;;2.28;2.17;;;;;;;;;;5036699;28;20234;-73
2023/03/03 07:14:30;;;;;;;3.75;3.53;;;;;;;;;;5034932;28;20253;-72
2023/03/03 07:17:00;;;;;;;1.00;0.90;;;;;;;;;;5034586;28;20232;-72
2023/03/03 07:19:52;;;;;;;1.30;1.20;;;;;;;;;;5033628;28;20233;-73
2023/03/03 07:22:25;;;;;;;1.65;1.55;;;;;;;;;;5027419;28;20306;-73
2023/03/03 07:24:54;;;;;;;1.65;1.55;;;;;;;;;;5035535;28;20247;-73
2023/03/03 07:27:24;;;;;;;2.53;2.33;;;;;;;;;;5035686;28;20228;-73
2023/03/03 07:29:54;;;;;;;1.30;1.20;;;;;;;;;;5035151;28;20225;-72
2023/03/03 07:32:43;;;;;;;2.08;1.98;;;;;;;;;;5035802;28;20222;-72
2023/03/03 07:35:27;;;;;;;1.90;1.80;;;;;;;;;;5034529;28;20563;-74
2023/03/03 07:37:55;;;;;;;1.35;1.25;;;;;;;;;;5035041;28;20284;-73
2023/03/03 07:40:34;;;;;;;1.98;1.88;;;;;;;;;;5033802;28;20735;-73
2023/03/03 07:43:03;;;;;;;1.65;1.55;;;;;;;;;;5031003;28;20315;-73
2023/03/03 07:45:36;;;;;;;1.90;1.80;;;;;;;;;;5034597;28;20243;-73
2023/03/03 07:48:11;;;;;;;1.95;1.85;;;;;;;;;;5037053;28;20310;-73
2023/03/03 07:50:40;;;;;;;1.98;1.88;;;;;;;;;;5034093;28;20225;-73
2023/03/03 07:53:13;;;;;;;1.70;1.60;;;;;;;;;;5035475;28;20243;-73
2023/03/03 07:55:45;;;;;;;1.67;1.58;;;;;;;;;;5033271;28;20221;-71
2023/03/03 07:58:26;;;;;;;2.80;2.65;;;;;;;;;;5034641;28;20289;-72
2023/03/03 08:01:14;;;;;;;1.33;1.23;;;;;;;;;;5030100;28;20263;-72
2023/03/03 08:03:52;;;;;;;2.38;2.28;;;;;;;;;;5035000;28;20235;-71
2023/03/03 08:06:39;;;;;;;2.70;2.55;;;;;;;;;;5038103;28;20227;-71
2023/03/03 08:09:25;;;;;;;1.77;1.67;;;;;;;;;;5034328;28;20795;-71
2023/03/03 08:14:38;;;;;;;4.38;4.18;;;;;;;;;;5030521;28;20260;-71
2023/03/03 08:17:16;;;;;;;3.15;2.97;;;;;;;;;;5039569;27;20230;-72
2023/03/03 08:22:37;;;;;;;2.10;2.00;;;;;;;;;;5027730;28;20223;-73
2023/03/03 08:25:08;;;;;;;1.70;1.60;;;;;;;;;;5039889;28;20287;-71
2023/03/03 08:28:05;;;;;;;1.88;1.77;;;;;;;;;;5039752;28;20292;-72
2023/03/03 08:30:48;;;;;;;3.00;2.80;;;;;;;;;;5039275;28;20243;-73
2023/03/03 08:33:19;;;;;;;2.30;2.20;;;;;;;;;;5040173;28;20707;-71
2023/03/03 08:35:50;;;;;;;3.00;2.88;;;;;;;;;;5039975;28;20638;-72
2023/03/03 08:41:48;;;;;;;4.35;4.05;;;;;;;;;;5012200;28;20637;-71
2023/03/03 08:44:25;;;;;;;6.75;6.30;;;;;;;;;;5036723;28;20497;-73
2023/03/03 08:46:53;;;;;;;2.60;2.45;;;;;;;;;;5028605;28;20238;-70
2023/03/03 08:49:36;;;;;;;4.50;4.20;;;;;;;;;;5045156;27;20230;-71
2023/03/03 08:52:13;;;;;;;5.78;5.38;;;;;;;;;;5069800;27;20566;-71
2023/03/03 08:54:57;;;;;;;3.38;3.17;;;;;;;;;;5048910;27;20711;-72
2023/03/03 08:57:33;;;;;;;5.85;5.50;;;;;;;;;;5057534;27;20736;-70
2023/03/03 09:05:57;;;;;;;2.33;2.22;;;;;;;;;;5103344;27;20532;-71
2023/03/03 09:08:35;;;;;;;1.90;1.80;;;;;;;;;;5049504;27;20807;-70
2023/03/03 09:17:07;;;;;;;3.20;3.00;;;;;;;;;;5099737;27;20250;-69
2023/03/03 09:19:39;;;;;;;3.05;2.85;;;;;;;;;;5062139;27;20226;-70
2023/03/03 09:22:19;;;;;;;3.60;3.40;;;;;;;;;;5123073;27;20527;-70
2023/03/03 09:25:00;;;;;;;2.08;1.98;;;;;;;;;;5034140;28;20350;-70
2023/03/03 09:27:31;;;;;;;2.83;2.63;;;;;;;;;;5056764;27;20250;-69
2023/03/03 09:30:05;;;;;;;2.15;2.05;;;;;;;;;;5115440;27;20224;-71
2023/03/03 09:32:38;;;;;;;2.85;2.65;;;;;;;;;;5078569;27;20224;-70
2023/03/03 09:41:42;;;;;;;3.72;3.53;;;;;;;;;;5070285;28;20291;-71
2023/03/03 09:44:42;;;;;;;2.47;2.35;;;;;;;;;;5037957;28;20231;-70
2023/03/03 09:47:37;;;;;;;1.83;1.73;;;;;;;;;;5046177;28;20266;-71
2023/03/03 09:53:15;;;;;;;1.75;1.65;;;;;;;;;;5055454;28;20231;-70
2023/03/03 09:56:06;;;;;;;2.55;2.38;;;;;;;;;;5056521;28;20274;-70
2023/03/03 10:02:06;;;;;;;4.50;4.28;;;;;;;;;;5091098;27;20363;-71
2023/03/03 10:05:05;;;;;;;2.58;2.45;;;;;;;;;;5140030;27;20515;-71
2023/03/03 10:07:46;;;;;;;2.85;2.67;;;;;;;;;;5055271;28;20237;-71
2023/03/03 10:10:40;;;;;;;3.55;3.35;;;;;;;;;;5032813;28;20239;-71
2023/03/03 10:13:30;;;;;;;2.10;2.00;;;;;;;;;;5042494;28;20272;-72
2023/03/03 10:16:21;;;;;;;2.92;2.80;;;;;;;;;;5058146;28;20238;-70
2023/03/03 10:21:57;;;;;;;3.65;3.45;;;;;;;;;;5034715;28;20219;-71
2023/03/03 10:24:52;;;;;;;4.60;4.32;;;;;;;;;;5034478;28;20261;-71
2023/03/03 10:27:33;;;;;;;4.80;4.50;;;;;;;;;;5033743;28;20281;-71
2023/03/03 10:36:29;;;;;;;3.03;2.83;;;;;;;;;;4996085;28;20230;-71
2023/03/03 10:39:30;;;;;;;;;;;;;;;;;;;;;
2023/03/03 10:42:35;;;;;;;2.92;2.72;;;;;;;;;;5021829;28;20224;-71
2023/03/03 10:45:45;;;;;;;3.70;3.50;;;;;;;;;;5014809;28;20820;-73
2023/03/03 10:48:25;;;;;;;3.53;3.33;;;;;;;;;;5024501;28;20693;-71
2023/03/03 10:51:07;;;;;;;3.50;3.30;;;;;;;;;;5037191;28;20237;-71
2023/03/03 10:53:45;;;;;;;1.85;1.75;;;;;;;;;;5037391;28;20252;-72
2023/03/03 10:56:31;;;;;;;2.40;2.30;;;;;;;;;;5035183;28;20233;-71
2023/03/03 10:59:25;;;;;;;2.35;2.25;;;;;;;;;;5037255;28;20231;-70
2023/03/03 11:02:00;;;;;;;2.88;2.67;;;;;;;;;;5035955;28;20251;-71
2023/03/03 11:04:46;;;;;;;2.92;2.78;;;;;;;;;;5036753;28;20236;-72
2023/03/03 11:07:20;;;;;;;3.25;3.05;;;;;;;;;;5038054;28;20268;-71
2023/03/03 11:10:15;;;;;;;;;;;;;;;;;;;;;
2023/03/03 11:12:50;;;;;;;3.85;3.65;;;;;;;;;;5015526;28;20286;-71
2023/03/03 11:15:29;;;;;;;3.67;3.47;;;;;;;;;;5035190;28;20586;-72
2023/03/03 11:18:12;;;;;;;2.92;2.75;;;;;;;;;;5031870;28;20219;-72
2023/03/03 11:20:56;;;;;;;2.42;2.33;;;;;;;;;;5083956;28;20238;-71
2023/03/03 11:23:37;;;;;;;2.45;2.35;;;;;;;;;;5074331;28;20288;-72
2023/03/03 11:26:10;;;;;;;2.50;2.40;;;;;;;;;;5036368;28;20274;-71
2023/03/03 11:28:46;;;;;;;5.00;4.70;;;;;;;;;;5053576;28;20837;-73
2023/03/03 11:31:22;;;;;;;2.65;2.55;;;;;;;;;;5017700;28;20226;-73
2023/03/03 11:34:06;;;;;;;2.75;2.65;;;;;;;;;;5051238;28;20236;-73
2023/03/03 11:36:55;;;;;;;3.15;2.95;;;;;;;;;;5022360;28;20223;-72
2023/03/03 11:39:37;;;;;;;2.00;1.90;;;;;;;;;;5036135;28;20412;-71
2023/03/03 11:42:12;;;;;;;2.10;2.00;;;;;;;;;;5032640;28;20211;-72
2023/03/03 11:47:36;;;;;;;2.40;2.30;;;;;;;;;;5044112;28;20252;-71
2023/03/03 11:50:06;;;;;;;2.15;2.05;;;;;;;;;;5045166;28;20244;-72
2023/03/03 11:52:46;;;;;;;1.80;1.70;;;;;;;;;;5062278;28;20227;-71
2023/03/03 11:55:27;;;;;;;1.33;1.33;;;;;;;;;;5045158;28;20298;-71
2023/03/03 11:58:13;;;;;;;2.65;2.55;;;;;;;;;;5032683;28;20232;-73
2023/03/03 12:03:40;;;;;;;2.58;2.47;;;;;;;;;;5032039;28;20227;-72
2023/03/03 12:06:21;;;;;;;2.35;2.25;;;;;;;;;;5043687;28;20228;-74
2023/03/03 12:09:02;;;;;;;3.13;3.03;;;;;;;;;;5033977;28;20230;-72
2023/03/03 12:11:37;;;;;;;2.90;2.80;;;;;;;;;;5040713;28;20293;-71
2023/03/03 12:14:16;;;;;;;2.40;2.30;;;;;;;;;;5049660;28;20624;-71
2023/03/03 12:16:51;;;;;;;3.47;3.38;;;;;;;;;;5040045;28;20225;-71
2023/03/03 12:19:41;;;;;;;3.65;3.45;;;;;;;;;;5039708;28;20225;-72
2023/03/03 12:22:24;;;;;;;2.70;2.60;;;;;;;;;;5037587;28;20236;-73
2023/03/03 12:25:27;;;;;;;1.10;1.10;;;;;;;;;;5043437;28;20353;-72
2023/03/03 12:28:10;;;;;;;2.97;2.88;;;;;;;;;;5030116;28;20232;-72
2023/03/03 12:30:49;;;;;;;3.45;3.28;;;;;;;;;;5058828;28;20779;-73
2023/03/03 12:33:39;;;;;;;3.10;3.00;;;;;;;;;;5038401;28;20293;-72
2023/03/03 12:36:18;;;;;;;2.70;2.60;;;;;;;;;;5024072;28;20528;-71
2023/03/03 12:41:41;;;;;;;1.65;1.65;;;;;;;;;;5034749;28;20232;-71
2023/03/03 12:47:36;;;;;;;2.35;2.25;;;;;;;;;;5139426;27;20239;-71
2023/03/03 12:50:30;;;;;;;5.70;5.40;;;;;;;;;;5064752;27;20270;-72
2023/03/03 12:56:27;;;;;;;2.75;2.67;;;;;;;;;;5035484;28;20222;-71
2023/03/03 12:59:16;;;;;;;4.22;4.03;;;;;;;;;;5040996;28;20324;-71
2023/03/03 13:11:21;;;;;;;1.55;1.45;;;;;;;;;;5052502;28;20237;-71
2023/03/03 13:17:19;;;;;;;2.90;2.80;;;;;;;;;;5019099;28;20210;-71
2023/03/03 13:19:56;;;;;;;3.67;3.47;;;;;;;;;;5034298;27;20227;-70
2023/03/03 13:22:34;;;;;;;2.88;2.78;;;;;;;;;;5033607;28;20226;-69
2023/03/03 13:25:20;;;;;;;2.50;2.40;;;;;;;;;;5049116;28;20310;-71
2023/03/03 13:27:52;;;;;;;3.17;3.08;;;;;;;;;;5035250;28;20239;-72
2023/03/03 13:30:53;;;;;;;2.35;2.25;;;;;;;;;;5035778;28;20251;-70
2023/03/03 13:33:26;;;;;;;2.85;2.75;;;;;;;;;;5048133;28;20271;-71
2023/03/03 13:36:18;;;;;;;2.47;2.38;;;;;;;;;;5035005;28;20271;-71
2023/03/03 13:38:52;;;;;;;2.05;1.95;;;;;;;;;;5057737;28;20214;-71
2023/03/03 13:41:23;;;;;;;3.22;3.10;;;;;;;;;;5037378;28;20222;-71
2023/03/03 13:44:03;;;;;;;5.60;5.30;;;;;;;;;;5029985;28;20233;-71
2023/03/03 13:47:01;;;;;;;2.58;2.47;;;;;;;;;;5027104;28;20738;-70
2023/03/03 13:49:57;;;;;;;1.40;1.40;;;;;;;;;;5036023;28;20311;-71
2023/03/03 13:55:27;;;;;;;1.30;1.30;;;;;;;;;;5038193;28;20296;-72
2023/03/03 13:58:21;;;;;;;1.55;1.50;;;;;;;;;;5035440;27;20227;-71
2023/03/03 14:01:02;;;;;;;4.18;3.97;;;;;;;;;;5054014;28;20591;-71
2023/03/03 14:06:36;;;;;;;1.52;1.52;;;;;;;;;;5030800;28;20237;-71
2023/03/03 14:09:26;;;;;;;2.00;1.90;;;;;;;;;;5036192;28;20206;-71
2023/03/03 14:12:02;;;;;;;2.72;2.58;;;;;;;;;;5036169;28;20303;-71
2023/03/03 14:14:46;;;;;;;3.83;3.63;;;;;;;;;;5035775;28;20279;-71
2023/03/03 14:17:25;;;;;;;2.10;2.00;;;;;;;;;;5043544;28;20249;-70
2023/03/03 14:20:08;;;;;;;0.75;0.75;;;;;;;;;;5039202;28;20231;-72
2023/03/03 14:25:55;;;;;;;1.10;1.10;;;;;;;;;;5040561;28;20226;-71
2023/03/03 14:28:39;;;;;;;2.40;2.25;;;;;;;;;;5041178;28;20214;-71
2023/03/03 14:33:59;;;;;;;3.45;3.25;;;;;;;;;;5026040;28;20606;-70
2023/03/03 14:36:29;;;;;;;2.28;2.17;;;;;;;;;;5031870;28;20210;-70
2023/03/03 14:38:57;;;;;;;0.85;0.85;;;;;;;;;;5035497;28;20215;-71
2023/03/03 14:42:00;;;;;;;1.40;1.40;;;;;;;;;;5039116;28;20279;-72
2023/03/03 14:57:16;;;;;;;1.30;1.30;;;;;;;;;;5091358;27;20308;-71
2023/03/03 15:03:23;;;;;;;3.00;2.85;;;;;;;;;;5072705;28;20292;-71
2023/03/03 15:05:59;;;;;;;1.83;1.75;;;;;;;;;;5119946;28;20215;-71
2023/03/03 15:08:59;;;;;;;2.85;2.75;;;;;;;;;;5123512;28;20222;-71
2023/03/03 15:11:41;;;;;;;2.55;2.45;;;;;;;;;;5132897;28;20538;-71
2023/03/03 15:14:20;;;;;;;3.13;2.97;;;;;;;;;;5134619;28;21699;-71
2023/03/03 15:20:31;;;;;;;2.85;2.75;;;;;;;;;;5125687;28;20549;-72
2023/03/03 15:23:13;;;;;;;2.40;2.30;;;;;;;;;;5129447;27;20233;-71
2023/03/03 15:28:33;;;;;;;2.38;2.28;;;;;;;;;;5134361;27;20245;-72
2023/03/03 15:31:11;;;;;;;2.10;2.03;;;;;;;;;;5131457;28;20214;-72
2023/03/03 15:33:44;;;;;;;2.25;2.15;;;;;;;;;;5132373;27;20217;-71
2023/03/03 15:36:26;;;;;;;1.90;1.83;;;;;;;;;;5128506;28;20290;-71
2023/03/03 15:39:27;;;;;;;2.83;2.72;;;;;;;;;;5130165;28;20230;-72
2023/03/03 15:41:58;;;;;;;2.15;2.08;;;;;;;;;;5134722;28;20300;-71
2023/03/03 15:48:20;;;;;;;2.78;2.67;;;;;;;;;;5114466;27;20215;-72
2023/03/03 15:51:06;;;;;;;2.67;2.58;;;;;;;;;;5134781;27;20868;-72
2023/03/03 15:53:54;;;;;;;1.58;1.58;;;;;;;;;;5130396;28;20219;-72
2023/03/03 15:56:29;;;;;;;1.75;1.75;;;;;;;;;;5130817;27;20238;-72
2023/03/03 15:59:18;;;;;;;1.88;1.80;;;;;;;;;;5131756;28;20211;-72
2023/03/03 16:01:49;;;;;;;1.25;1.25;;;;;;;;;;5119070;28;20230;-72
2023/03/03 16:04:22;;;;;;;4.28;4.07;;;;;;;;;;5123788;27;20212;-70
2023/03/03 16:07:15;;;;;;;5.28;5.03;;;;;;;;;;5119912;28;20230;-71
2023/03/03 16:09:52;;;;;;;2.75;2.65;;;;;;;;;;5110171;28;20221;-71
2023/03/03 16:12:26;;;;;;;4.20;4.00;;;;;;;;;;5113427;28;20227;-71
2023/03/03 16:15:11;;;;;;;2.28;2.17;;;;;;;;;;5108950;28;20606;-71
2023/03/03 16:17:58;;;;;;;1.67;1.67;;;;;;;;;;5112711;28;20307;-71
2023/03/03 16:20:30;;;;;;;2.10;2.00;;;;;;;;;;5119275;28;20231;-72
2023/03/03 16:23:12;;;;;;;2.35;2.25;;;;;;;;;;5118657;28;20216;-72
2023/03/03 16:25:47;;;;;;;4.00;3.83;;;;;;;;;;5118554;28;20203;-72
2023/03/03 16:28:19;;;;;;;1.75;1.75;;;;;;;;;;5118729;28;20223;-72
2023/03/03 16:30:53;;;;;;;2.17;2.08;;;;;;;;;;5121801;28;20791;-72
2023/03/03 16:33:59;;;;;;;2.30;2.20;;;;;;;;;;5119626;28;20328;-71
2023/03/03 16:36:32;;;;;;;2.15;2.05;;;;;;;;;;5115309;28;20751;-71
2023/03/03 16:39:09;;;;;;;1.80;1.80;;;;;;;;;;5114772;28;20226;-72
2023/03/03 16:41:56;;;;;;;3.08;2.97;;;;;;;;;;5099495;28;20219;-71
2023/03/03 16:44:48;;;;;;;1.92;1.88;;;;;;;;;;5102502;28;20259;-72
2023/03/03 16:47:23;;;;;;;3.33;3.15;;;;;;;;;;5098653;28;20612;-71
2023/03/03 16:49:58;;;;;;;2.35;2.25;;;;;;;;;;5118841;28;20215;-71
2023/03/03 16:52:34;;;;;;;2.70;2.60;;;;;;;;;;5114742;28;20243;-72
2023/03/03 16:55:06;;;;;;;1.20;1.20;;;;;;;;;;5107359;28;20223;-73
2023/03/03 16:57:42;;;;;;;3.17;3.08;;;;;;;;;;5099706;28;20216;-72
2023/03/03 17:00:13;;;;;;;1.55;1.55;;;;;;;;;;5097918;28;20631;-71
2023/03/03 17:03:03;;;;;;;2.10;2.00;;;;;;;;;;5098093;28;20279;-71
2023/03/03 17:05:38;;;;;;;3.90;3.72;;;;;;;;;;5102565;28;20228;-72
2023/03/03 17:08:13;;;;;;;1.40;1.40;;;;;;;;;;5119516;28;20595;-72
2023/03/03 17:10:43;;;;;;;1.15;1.15;;;;;;;;;;5119231;27;20312;-73
2023/03/03 17:13:37;;;;;;;2.22;2.13;;;;;;;;;;5103661;28;20233;-73
2023/03/03 17:16:16;;;;;;;1.25;1.25;;;;;;;;;;5061407;28;20232;-73
2023/03/03 17:18:54;;;;;;;1.38;1.38;;;;;;;;;;5118235;28;20659;-72
2023/03/03 17:21:31;;;;;;;1.15;1.15;;;;;;;;;;5113180;28;20647;-72
2023/03/03 17:24:07;;;;;;;1.98;1.88;;;;;;;;;;5099091;28;20272;-72
2023/03/03 17:26:55;;;;;;;4.10;3.90;;;;;;;;;;5111350;28;20216;-72
2023/03/03 17:29:37;;;;;;;2.35;2.25;;;;;;;;;;5121906;28;20243;-72